sensor_id;sensor_type;location;lat;lon;timestamp;noise_LAeq;noise_LA_min;noise_LA_max;noise_LA01;noise_LA95
71805;Laerm;59654;52.216;5.616;2024-03-02T00:00:30;48.68;42.53;56.56;;
71805;Laerm;59654;52.216;5.616;2024-03-02T00:01:01;45.13;40.63;55.24;;
71805;Laerm;59654;52.216;5.616;2024-03-02T00:01:32;44.07;39.90;53.44;;
71805;Laerm;59654;52.216;5.616;2024-03-02T00:02:04;44.09;39.38;53.60;;
71805;Laerm;59654;52.216;5.616;2024-03-02T00:02:54;43.78;38.95;55.60;;
71805;Laerm;59654;52.216;5.616;2024-03-02T00:03:26;44.04;39.74;55.74;;
71805;Laerm;59654;52.216;5.616;2024-03-02T00:03:57;45.03;41.27;54.34;;
71805;Laerm;59654;52.216;5.616;2024-03-02T00:04:29;47.00;42.11;54.79;;
71805;Laerm;59654;52.216;5.616;2024-03-02T00:05:00;46.24;42.14;53.96;;
71805;Laerm;59654;52.216;5.616;2024-03-02T00:05:31;46.95;41.25;55.90;;
71805;Laerm;59654;52.216;5.616;2024-03-02T00:06:03;44.20;39.35;53.53;;
71805;Laerm;59654;52.216;5.616;2024-03-02T00:06:34;46.11;40.73;54.13;;
71805;Laerm;59654;52.216;5.616;2024-03-02T00:07:07;47.15;38.73;54.45;;
71805;Laerm;59654;52.216;5.616;2024-03-02T00:07:58;48.86;41.93;55.26;;
71805;Laerm;59654;52.216;5.616;2024-03-02T00:08:30;47.07;42.80;54.82;;
71805;Laerm;59654;52.216;5.616;2024-03-02T00:09:01;46.67;42.84;54.28;;
71805;Laerm;59654;52.216;5.616;2024-03-02T00:09:33;46.85;42.02;54.22;;
71805;Laerm;59654;52.216;5.616;2024-03-02T00:10:10;49.22;43.11;57.43;;
71805;Laerm;59654;52.216;5.616;2024-03-02T00:10:43;45.91;41.43;55.02;;
71805;Laerm;59654;52.216;5.616;2024-03-02T00:11:14;48.01;42.44;57.34;;
71805;Laerm;59654;52.216;5.616;2024-03-02T00:11:46;51.60;44.29;56.99;;
71805;Laerm;59654;52.216;5.616;2024-03-02T00:12:18;44.86;41.09;53.94;;
71805;Laerm;59654;52.216;5.616;2024-03-02T00:12:51;44.30;39.46;54.60;;
71805;Laerm;59654;52.216;5.616;2024-03-02T00:13:23;43.85;38.26;53.59;;
71805;Laerm;59654;52.216;5.616;2024-03-02T00:13:55;45.23;39.33;53.87;;
71805;Laerm;59654;52.216;5.616;2024-03-02T00:14:29;44.91;38.19;54.72;;
71805;Laerm;59654;52.216;5.616;2024-03-02T00:15:00;43.77;38.06;54.17;;
71805;Laerm;59654;52.216;5.616;2024-03-02T00:16:03;44.89;38.69;54.70;;
71805;Laerm;59654;52.216;5.616;2024-03-02T00:16:36;42.53;38.24;53.55;;
71805;Laerm;59654;52.216;5.616;2024-03-02T00:17:24;44.20;38.52;54.32;;
71805;Laerm;59654;52.216;5.616;2024-03-02T00:17:56;46.55;41.19;56.52;;
71805;Laerm;59654;52.216;5.616;2024-03-02T00:18:40;42.84;37.88;53.92;;
71805;Laerm;59654;52.216;5.616;2024-03-02T00:19:12;43.17;37.77;54.60;;
71805;Laerm;59654;52.216;5.616;2024-03-02T00:19:44;43.97;39.37;56.16;;
71805;Laerm;59654;52.216;5.616;2024-03-02T00:20:24;43.25;38.83;55.88;;
71805;Laerm;59654;52.216;5.616;2024-03-02T00:21:00;42.13;37.14;53.60;;
71805;Laerm;59654;52.216;5.616;2024-03-02T00:21:31;43.18;37.88;53.48;;
71805;Laerm;59654;52.216;5.616;2024-03-02T00:22:02;43.17;37.88;53.65;;
71805;Laerm;59654;52.216;5.616;2024-03-02T00:22:35;44.81;38.82;54.75;;
71805;Laerm;59654;52.216;5.616;2024-03-02T00:23:10;48.59;43.97;56.58;;
71805;Laerm;59654;52.216;5.616;2024-03-02T00:23:42;47.55;39.46;55.94;;
71805;Laerm;59654;52.216;5.616;2024-03-02T00:24:25;46.28;40.86;54.56;;
71805;Laerm;59654;52.216;5.616;2024-03-02T00:25:00;46.05;41.28;54.10;;
71805;Laerm;59654;52.216;5.616;2024-03-02T00:25:47;42.92;38.63;53.85;;
71805;Laerm;59654;52.216;5.616;2024-03-02T00:26:19;47.71;41.86;56.39;;
71805;Laerm;59654;52.216;5.616;2024-03-02T00:26:51;45.60;42.03;54.28;;
71805;Laerm;59654;52.216;5.616;2024-03-02T00:27:22;48.32;42.61;56.38;;
71805;Laerm;59654;52.216;5.616;2024-03-02T00:27:56;44.91;39.24;54.28;;
71805;Laerm;59654;52.216;5.616;2024-03-02T00:28:32;43.56;39.35;53.46;;
71805;Laerm;59654;52.216;5.616;2024-03-02T00:29:07;45.60;40.84;53.63;;
71805;Laerm;59654;52.216;5.616;2024-03-02T00:29:44;44.41;38.55;55.34;;
71805;Laerm;59654;52.216;5.616;2024-03-02T00:30:55;45.91;40.24;56.15;;
71805;Laerm;59654;52.216;5.616;2024-03-02T00:31:27;42.02;37.24;53.05;;
71805;Laerm;59654;52.216;5.616;2024-03-02T00:31:58;43.11;38.14;53.20;;
71805;Laerm;59654;52.216;5.616;2024-03-02T00:32:30;43.35;38.13;53.20;;
71805;Laerm;59654;52.216;5.616;2024-03-02T00:33:01;42.40;36.87;53.06;;
71805;Laerm;59654;52.216;5.616;2024-03-02T00:33:41;42.63;38.41;55.68;;
71805;Laerm;59654;52.216;5.616;2024-03-02T00:34:17;45.81;40.37;54.52;;
71805;Laerm;59654;52.216;5.616;2024-03-02T00:34:48;44.68;39.16;54.17;;
71805;Laerm;59654;52.216;5.616;2024-03-02T00:35:23;41.29;37.54;53.58;;
71805;Laerm;59654;52.216;5.616;2024-03-02T00:35:55;42.48;37.95;53.12;;
71805;Laerm;59654;52.216;5.616;2024-03-02T00:36:27;44.16;38.86;53.71;;
71805;Laerm;59654;52.216;5.616;2024-03-02T00:37:01;42.86;36.50;53.27;;
71805;Laerm;59654;52.216;5.616;2024-03-02T00:37:34;42.98;37.15;53.40;;
71805;Laerm;59654;52.216;5.616;2024-03-02T00:38:06;44.23;38.28;53.57;;
71805;Laerm;59654;52.216;5.616;2024-03-02T00:38:51;45.08;39.50;54.06;;
71805;Laerm;59654;52.216;5.616;2024-03-02T00:39:27;44.93;40.16;54.50;;
71805;Laerm;59654;52.216;5.616;2024-03-02T00:40:00;41.70;37.32;53.38;;
71805;Laerm;59654;52.216;5.616;2024-03-02T00:40:32;41.63;36.91;53.28;;
71805;Laerm;59654;52.216;5.616;2024-03-02T00:41:06;45.19;36.19;56.24;;
71805;Laerm;59654;52.216;5.616;2024-03-02T00:41:41;41.46;35.94;53.14;;
71805;Laerm;59654;52.216;5.616;2024-03-02T00:42:15;42.27;37.11;55.63;;
71805;Laerm;59654;52.216;5.616;2024-03-02T00:42:46;44.30;38.93;53.92;;
71805;Laerm;59654;52.216;5.616;2024-03-02T00:44:21;46.88;40.44;55.98;;
71805;Laerm;59654;52.216;5.616;2024-03-02T00:44:55;47.84;42.57;55.29;;
71805;Laerm;59654;52.216;5.616;2024-03-02T00:45:27;44.72;38.94;53.57;;
71805;Laerm;59654;52.216;5.616;2024-03-02T00:45:59;44.15;38.38;53.55;;
71805;Laerm;59654;52.216;5.616;2024-03-02T00:46:36;41.35;36.47;53.14;;
71805;Laerm;59654;52.216;5.616;2024-03-02T00:47:07;40.95;36.54;53.36;;
71805;Laerm;59654;52.216;5.616;2024-03-02T00:47:39;41.22;36.42;53.07;;
71805;Laerm;59654;52.216;5.616;2024-03-02T00:48:10;42.25;36.65;53.20;;
71805;Laerm;59654;52.216;5.616;2024-03-02T00:49:00;44.30;38.89;55.17;;
71805;Laerm;59654;52.216;5.616;2024-03-02T00:49:32;48.58;40.62;57.14;;
71805;Laerm;59654;52.216;5.616;2024-03-02T00:50:05;41.67;37.21;53.32;;
71805;Laerm;59654;52.216;5.616;2024-03-02T00:50:37;42.43;37.42;53.18;;
71805;Laerm;59654;52.216;5.616;2024-03-02T00:51:08;46.85;42.06;54.65;;
71805;Laerm;59654;52.216;5.616;2024-03-02T00:51:39;44.37;37.23;53.89;;
71805;Laerm;59654;52.216;5.616;2024-03-02T00:52:10;42.90;37.16;53.23;;
71805;Laerm;59654;52.216;5.616;2024-03-02T00:52:43;41.93;36.16;53.16;;
71805;Laerm;59654;52.216;5.616;2024-03-02T00:53:14;40.73;35.54;52.99;;
71805;Laerm;59654;52.216;5.616;2024-03-02T00:53:45;42.28;36.72;55.08;;
71805;Laerm;59654;52.216;5.616;2024-03-02T00:54:26;41.22;36.42;53.25;;
71805;Laerm;59654;52.216;5.616;2024-03-02T00:54:59;41.72;36.90;54.06;;
71805;Laerm;59654;52.216;5.616;2024-03-02T00:55:30;41.66;36.09;56.15;;
71805;Laerm;59654;52.216;5.616;2024-03-02T00:56:01;41.73;36.99;53.07;;
71805;Laerm;59654;52.216;5.616;2024-03-02T00:56:35;41.68;36.45;53.16;;
71805;Laerm;59654;52.216;5.616;2024-03-02T00:57:10;44.71;36.94;54.26;;
71805;Laerm;59654;52.216;5.616;2024-03-02T00:57:42;46.37;40.98;54.29;;
71805;Laerm;59654;52.216;5.616;2024-03-02T00:58:14;46.41;41.27;55.01;;
71805;Laerm;59654;52.216;5.616;2024-03-02T00:58:46;44.07;39.23;53.48;;
71805;Laerm;59654;52.216;5.616;2024-03-02T00:59:17;42.15;37.96;53.11;;
71805;Laerm;59654;52.216;5.616;2024-03-02T00:59:49;48.42;38.90;55.66;;
71805;Laerm;59654;52.216;5.616;2024-03-02T01:00:20;48.27;39.58;56.09;;
71805;Laerm;59654;52.216;5.616;2024-03-02T01:00:51;43.03;38.40;53.31;;
71805;Laerm;59654;52.216;5.616;2024-03-02T01:01:22;44.50;40.18;53.67;;
71805;Laerm;59654;52.216;5.616;2024-03-02T01:01:53;45.75;42.11;54.62;;
71805;Laerm;59654;52.216;5.616;2024-03-02T01:02:25;44.35;40.53;53.61;;
71805;Laerm;59654;52.216;5.616;2024-03-02T01:02:56;43.23;39.87;53.39;;
71805;Laerm;59654;52.216;5.616;2024-03-02T01:03:27;45.33;41.40;54.09;;
71805;Laerm;59654;52.216;5.616;2024-03-02T01:03:58;50.77;44.89;59.29;;
71805;Laerm;59654;52.216;5.616;2024-03-02T01:04:29;46.13;40.61;53.90;;
71805;Laerm;59654;52.216;5.616;2024-03-02T01:05:01;42.62;38.62;53.19;;
71805;Laerm;59654;52.216;5.616;2024-03-02T01:05:33;43.74;38.81;55.85;;
71805;Laerm;59654;52.216;5.616;2024-03-02T01:06:05;47.71;41.37;54.58;;
71805;Laerm;59654;52.216;5.616;2024-03-02T01:06:38;46.10;39.67;54.65;;
71805;Laerm;59654;52.216;5.616;2024-03-02T01:07:10;48.29;40.37;56.03;;
71805;Laerm;59654;52.216;5.616;2024-03-02T01:07:41;47.62;42.03;55.19;;
71805;Laerm;59654;52.216;5.616;2024-03-02T01:08:12;44.57;39.56;54.18;;
71805;Laerm;59654;52.216;5.616;2024-03-02T01:08:44;43.83;39.29;54.18;;
71805;Laerm;59654;52.216;5.616;2024-03-02T01:09:15;42.87;37.63;53.61;;
71805;Laerm;59654;52.216;5.616;2024-03-02T01:09:47;43.67;38.22;53.61;;
71805;Laerm;59654;52.216;5.616;2024-03-02T01:10:18;46.24;38.82;54.36;;
71805;Laerm;59654;52.216;5.616;2024-03-02T01:10:51;45.91;40.68;55.30;;
71805;Laerm;59654;52.216;5.616;2024-03-02T01:11:22;48.82;40.99;56.54;;
71805;Laerm;59654;52.216;5.616;2024-03-02T01:11:53;45.29;40.93;54.76;;
71805;Laerm;59654;52.216;5.616;2024-03-02T01:12:23;48.80;41.54;57.01;;
71805;Laerm;59654;52.216;5.616;2024-03-02T01:12:54;47.37;42.64;55.48;;
71805;Laerm;59654;52.216;5.616;2024-03-02T01:13:26;47.87;43.33;55.53;;
71805;Laerm;59654;52.216;5.616;2024-03-02T01:13:57;48.33;44.37;55.37;;
71805;Laerm;59654;52.216;5.616;2024-03-02T01:14:28;50.70;47.06;56.19;;
71805;Laerm;59654;52.216;5.616;2024-03-02T01:15:01;49.46;42.88;56.00;;
71805;Laerm;59654;52.216;5.616;2024-03-02T01:15:34;46.35;40.63;55.06;;
71805;Laerm;59654;52.216;5.616;2024-03-02T01:16:07;44.51;40.15;54.03;;
71805;Laerm;59654;52.216;5.616;2024-03-02T01:16:38;42.94;36.67;53.69;;
71805;Laerm;59654;52.216;5.616;2024-03-02T01:17:10;41.85;37.18;53.49;;
71805;Laerm;59654;52.216;5.616;2024-03-02T01:17:42;42.21;36.89;53.63;;
71805;Laerm;59654;52.216;5.616;2024-03-02T01:18:13;42.77;38.11;56.25;;
71805;Laerm;59654;52.216;5.616;2024-03-02T01:18:45;41.18;36.86;53.55;;
71805;Laerm;59654;52.216;5.616;2024-03-02T01:19:15;41.49;36.10;53.46;;
71805;Laerm;59654;52.216;5.616;2024-03-02T01:19:47;41.71;35.80;53.36;;
71805;Laerm;59654;52.216;5.616;2024-03-02T01:20:19;40.56;35.43;53.43;;
71805;Laerm;59654;52.216;5.616;2024-03-02T01:20:51;43.10;34.90;53.88;;
71805;Laerm;59654;52.216;5.616;2024-03-02T01:21:28;43.25;36.04;54.75;;
71805;Laerm;59654;52.216;5.616;2024-03-02T01:21:58;42.16;34.90;53.74;;
71805;Laerm;59654;52.216;5.616;2024-03-02T01:22:30;40.82;34.53;53.84;;
71805;Laerm;59654;52.216;5.616;2024-03-02T01:23:02;42.36;36.42;53.77;;
71805;Laerm;59654;52.216;5.616;2024-03-02T01:23:34;42.49;35.29;56.17;;
71805;Laerm;59654;52.216;5.616;2024-03-02T01:24:05;41.80;34.56;55.23;;
71805;Laerm;59654;52.216;5.616;2024-03-02T01:24:36;39.64;33.91;53.35;;
71805;Laerm;59654;52.216;5.616;2024-03-02T01:25:09;41.00;34.99;53.92;;
71805;Laerm;59654;52.216;5.616;2024-03-02T01:25:40;42.98;36.04;54.11;;
71805;Laerm;59654;52.216;5.616;2024-03-02T01:26:11;40.79;33.57;54.93;;
71805;Laerm;59654;52.216;5.616;2024-03-02T01:26:42;40.66;33.43;53.65;;
71805;Laerm;59654;52.216;5.616;2024-03-02T01:27:13;39.97;33.37;53.56;;
71805;Laerm;59654;52.216;5.616;2024-03-02T01:27:44;40.82;33.78;53.44;;
71805;Laerm;59654;52.216;5.616;2024-03-02T01:28:17;40.78;34.06;53.99;;
71805;Laerm;59654;52.216;5.616;2024-03-02T01:28:48;39.75;33.29;56.38;;
71805;Laerm;59654;52.216;5.616;2024-03-02T01:29:19;40.71;33.67;53.44;;
71805;Laerm;59654;52.216;5.616;2024-03-02T01:29:50;43.15;34.87;53.85;;
71805;Laerm;59654;52.216;5.616;2024-03-02T01:30:23;45.26;36.99;56.70;;
71805;Laerm;59654;52.216;5.616;2024-03-02T01:30:55;42.25;36.71;53.94;;
71805;Laerm;59654;52.216;5.616;2024-03-02T01:31:26;41.38;35.59;53.87;;
71805;Laerm;59654;52.216;5.616;2024-03-02T01:31:57;40.00;34.65;53.63;;
71805;Laerm;59654;52.216;5.616;2024-03-02T01:32:29;44.76;34.66;55.40;;
71805;Laerm;59654;52.216;5.616;2024-03-02T01:33:00;44.53;35.79;55.05;;
71805;Laerm;59654;52.216;5.616;2024-03-02T01:33:33;41.55;34.53;56.50;;
71805;Laerm;59654;52.216;5.616;2024-03-02T01:34:05;41.13;34.98;56.13;;
71805;Laerm;59654;52.216;5.616;2024-03-02T01:34:36;39.29;34.23;53.38;;
71805;Laerm;59654;52.216;5.616;2024-03-02T01:35:07;41.03;35.21;53.31;;
71805;Laerm;59654;52.216;5.616;2024-03-02T01:35:38;38.89;34.48;53.27;;
71805;Laerm;59654;52.216;5.616;2024-03-02T01:36:09;39.39;33.30;53.20;;
71805;Laerm;59654;52.216;5.616;2024-03-02T01:36:40;39.94;33.42;53.24;;
71805;Laerm;59654;52.216;5.616;2024-03-02T01:37:12;39.37;34.17;56.13;;
71805;Laerm;59654;52.216;5.616;2024-03-02T01:37:43;48.03;36.28;55.68;;
71805;Laerm;59654;52.216;5.616;2024-03-02T01:38:15;48.62;39.11;55.60;;
71805;Laerm;59654;52.216;5.616;2024-03-02T01:38:46;41.37;34.33;54.48;;
71805;Laerm;59654;52.216;5.616;2024-03-02T01:39:18;40.82;33.80;54.33;;
71805;Laerm;59654;52.216;5.616;2024-03-02T01:39:49;40.31;33.89;57.04;;
71805;Laerm;59654;52.216;5.616;2024-03-02T01:40:20;40.49;34.54;54.03;;
71805;Laerm;59654;52.216;5.616;2024-03-02T01:40:51;40.19;34.32;54.06;;
71805;Laerm;59654;52.216;5.616;2024-03-02T01:41:23;39.24;33.29;53.87;;
71805;Laerm;59654;52.216;5.616;2024-03-02T01:41:54;41.67;35.82;54.14;;
71805;Laerm;59654;52.216;5.616;2024-03-02T01:42:25;40.36;33.53;54.31;;
71805;Laerm;59654;52.216;5.616;2024-03-02T01:42:57;44.69;39.51;54.51;;
71805;Laerm;59654;52.216;5.616;2024-03-02T01:43:31;39.89;32.84;54.34;;
71805;Laerm;59654;52.216;5.616;2024-03-02T01:44:04;40.17;32.37;53.85;;
71805;Laerm;59654;52.216;5.616;2024-03-02T01:44:35;40.83;33.54;54.11;;
71805;Laerm;59654;52.216;5.616;2024-03-02T01:45:09;42.65;36.97;54.57;;
71805;Laerm;59654;52.216;5.616;2024-03-02T01:45:40;43.84;37.01;56.72;;
71805;Laerm;59654;52.216;5.616;2024-03-02T01:46:11;41.32;34.69;55.94;;
71805;Laerm;59654;52.216;5.616;2024-03-02T01:46:42;42.68;36.39;54.16;;
71805;Laerm;59654;52.216;5.616;2024-03-02T01:47:14;40.66;34.49;56.50;;
71805;Laerm;59654;52.216;5.616;2024-03-02T01:47:45;40.45;34.41;53.76;;
71805;Laerm;59654;52.216;5.616;2024-03-02T01:48:16;40.10;33.02;55.52;;
71805;Laerm;59654;52.216;5.616;2024-03-02T01:48:47;39.54;32.50;53.48;;
71805;Laerm;59654;52.216;5.616;2024-03-02T01:49:18;38.69;32.38;53.53;;
71805;Laerm;59654;52.216;5.616;2024-03-02T01:49:49;39.02;32.60;53.61;;
71805;Laerm;59654;52.216;5.616;2024-03-02T01:50:29;38.26;32.09;53.59;;
71805;Laerm;59654;52.216;5.616;2024-03-02T01:51:01;38.45;31.95;53.59;;
71805;Laerm;59654;52.216;5.616;2024-03-02T01:51:32;40.59;32.23;53.61;;
71805;Laerm;59654;52.216;5.616;2024-03-02T01:52:03;39.05;33.07;53.64;;
71805;Laerm;59654;52.216;5.616;2024-03-02T01:52:35;40.13;33.35;53.82;;
71805;Laerm;59654;52.216;5.616;2024-03-02T01:53:09;40.10;33.20;53.73;;
71805;Laerm;59654;52.216;5.616;2024-03-02T01:53:40;37.88;32.39;53.57;;
71805;Laerm;59654;52.216;5.616;2024-03-02T01:54:11;39.38;32.67;53.47;;
71805;Laerm;59654;52.216;5.616;2024-03-02T01:54:42;39.85;32.54;53.47;;
71805;Laerm;59654;52.216;5.616;2024-03-02T01:55:13;39.32;32.66;53.42;;
71805;Laerm;59654;52.216;5.616;2024-03-02T01:55:44;39.71;32.93;53.50;;
71805;Laerm;59654;52.216;5.616;2024-03-02T01:56:15;40.50;34.36;53.76;;
71805;Laerm;59654;52.216;5.616;2024-03-02T01:56:46;41.83;33.61;55.40;;
71805;Laerm;59654;52.216;5.616;2024-03-02T01:57:18;41.74;36.22;53.87;;
71805;Laerm;59654;52.216;5.616;2024-03-02T01:57:50;40.40;33.70;55.08;;
71805;Laerm;59654;52.216;5.616;2024-03-02T01:58:25;38.74;33.11;56.18;;
71805;Laerm;59654;52.216;5.616;2024-03-02T01:58:56;39.94;33.42;53.47;;
71805;Laerm;59654;52.216;5.616;2024-03-02T01:59:27;39.78;33.89;53.40;;
71805;Laerm;59654;52.216;5.616;2024-03-02T01:59:58;39.07;32.62;53.43;;
71805;Laerm;59654;52.216;5.616;2024-03-02T02:00:30;39.43;32.87;53.56;;
71805;Laerm;59654;52.216;5.616;2024-03-02T02:01:01;40.77;34.63;54.16;;
71805;Laerm;59654;52.216;5.616;2024-03-02T02:01:32;40.21;32.49;56.49;;
71805;Laerm;59654;52.216;5.616;2024-03-02T02:02:03;38.37;31.84;53.48;;
71805;Laerm;59654;52.216;5.616;2024-03-02T02:02:34;38.43;31.70;54.97;;
71805;Laerm;59654;52.216;5.616;2024-03-02T02:03:05;39.17;32.53;53.38;;
71805;Laerm;59654;52.216;5.616;2024-03-02T02:03:37;39.08;32.45;56.39;;
71805;Laerm;59654;52.216;5.616;2024-03-02T02:04:08;38.92;31.99;53.27;;
71805;Laerm;59654;52.216;5.616;2024-03-02T02:04:39;38.64;32.17;53.29;;
71805;Laerm;59654;52.216;5.616;2024-03-02T02:05:10;39.77;32.41;55.25;;
71805;Laerm;59654;52.216;5.616;2024-03-02T02:05:42;39.77;34.00;53.67;;
71805;Laerm;59654;52.216;5.616;2024-03-02T02:06:13;40.07;33.33;53.77;;
71805;Laerm;59654;52.216;5.616;2024-03-02T02:06:44;41.14;33.90;53.67;;
71805;Laerm;59654;52.216;5.616;2024-03-02T02:07:16;42.85;35.55;54.05;;
71805;Laerm;59654;52.216;5.616;2024-03-02T02:07:48;40.94;34.86;55.05;;
71805;Laerm;59654;52.216;5.616;2024-03-02T02:08:20;40.47;33.77;53.82;;
71805;Laerm;59654;52.216;5.616;2024-03-02T02:08:51;39.43;33.54;56.42;;
71805;Laerm;59654;52.216;5.616;2024-03-02T02:09:22;43.43;34.87;56.56;;
71805;Laerm;59654;52.216;5.616;2024-03-02T02:09:54;41.10;33.30;54.01;;
71805;Laerm;59654;52.216;5.616;2024-03-02T02:10:25;40.33;32.81;53.74;;
71805;Laerm;59654;52.216;5.616;2024-03-02T02:10:55;39.80;33.12;55.17;;
71805;Laerm;59654;52.216;5.616;2024-03-02T02:11:27;40.56;33.04;53.54;;
71805;Laerm;59654;52.216;5.616;2024-03-02T02:11:59;39.99;32.71;53.43;;
71805;Laerm;59654;52.216;5.616;2024-03-02T02:12:30;40.35;33.94;53.31;;
71805;Laerm;59654;52.216;5.616;2024-03-02T02:13:01;40.23;32.83;56.69;;
71805;Laerm;59654;52.216;5.616;2024-03-02T02:13:33;39.52;32.24;54.10;;
71805;Laerm;59654;52.216;5.616;2024-03-02T02:14:06;40.40;31.96;55.45;;
71805;Laerm;59654;52.216;5.616;2024-03-02T02:14:38;37.83;31.87;53.41;;
71805;Laerm;59654;52.216;5.616;2024-03-02T02:15:27;39.74;32.27;53.42;;
71805;Laerm;59654;52.216;5.616;2024-03-02T02:16:08;39.86;32.44;53.36;;
71805;Laerm;59654;52.216;5.616;2024-03-02T02:16:39;39.56;32.47;53.39;;
71805;Laerm;59654;52.216;5.616;2024-03-02T02:17:10;39.61;32.08;54.10;;
71805;Laerm;59654;52.216;5.616;2024-03-02T02:17:41;38.10;32.10;53.31;;
71805;Laerm;59654;52.216;5.616;2024-03-02T02:18:12;40.11;32.56;53.30;;
71805;Laerm;59654;52.216;5.616;2024-03-02T02:18:43;39.25;31.78;53.35;;
71805;Laerm;59654;52.216;5.616;2024-03-02T02:19:14;39.18;32.12;53.30;;
71805;Laerm;59654;52.216;5.616;2024-03-02T02:19:44;39.08;32.51;55.75;;
71805;Laerm;59654;52.216;5.616;2024-03-02T02:20:16;39.39;32.58;53.49;;
71805;Laerm;59654;52.216;5.616;2024-03-02T02:20:47;40.34;32.21;56.21;;
71805;Laerm;59654;52.216;5.616;2024-03-02T02:21:17;39.96;33.39;53.75;;
71805;Laerm;59654;52.216;5.616;2024-03-02T02:21:48;40.60;34.02;53.85;;
71805;Laerm;59654;52.216;5.616;2024-03-02T02:22:20;39.68;32.90;56.44;;
71805;Laerm;59654;52.216;5.616;2024-03-02T02:23:00;38.92;32.38;53.68;;
71805;Laerm;59654;52.216;5.616;2024-03-02T02:23:31;40.07;32.39;53.59;;
71805;Laerm;59654;52.216;5.616;2024-03-02T02:24:03;39.53;32.12;56.55;;
71805;Laerm;59654;52.216;5.616;2024-03-02T02:24:34;39.79;31.70;53.44;;
71805;Laerm;59654;52.216;5.616;2024-03-02T02:25:06;38.96;31.85;53.29;;
71805;Laerm;59654;52.216;5.616;2024-03-02T02:25:37;38.00;31.86;56.23;;
71805;Laerm;59654;52.216;5.616;2024-03-02T02:26:08;39.19;32.15;53.34;;
71805;Laerm;59654;52.216;5.616;2024-03-02T02:26:39;39.96;32.71;53.39;;
71805;Laerm;59654;52.216;5.616;2024-03-02T02:27:10;39.92;32.64;53.44;;
71805;Laerm;59654;52.216;5.616;2024-03-02T02:27:43;39.73;33.21;53.38;;
71805;Laerm;59654;52.216;5.616;2024-03-02T02:28:14;39.20;32.95;53.39;;
71805;Laerm;59654;52.216;5.616;2024-03-02T02:28:45;39.56;32.29;53.27;;
71805;Laerm;59654;52.216;5.616;2024-03-02T02:29:18;39.23;32.75;53.23;;
71805;Laerm;59654;52.216;5.616;2024-03-02T02:29:48;39.00;32.43;53.37;;
71805;Laerm;59654;52.216;5.616;2024-03-02T02:30:30;38.98;32.47;53.44;;
71805;Laerm;59654;52.216;5.616;2024-03-02T02:31:01;38.32;32.13;53.50;;
71805;Laerm;59654;52.216;5.616;2024-03-02T02:31:40;39.14;31.78;53.41;;
71805;Laerm;59654;52.216;5.616;2024-03-02T02:32:11;39.25;32.52;53.44;;
71805;Laerm;59654;52.216;5.616;2024-03-02T02:32:42;39.88;32.18;53.25;;
71805;Laerm;59654;52.216;5.616;2024-03-02T02:33:14;38.96;32.37;53.12;;
71805;Laerm;59654;52.216;5.616;2024-03-02T02:33:46;38.56;32.78;53.23;;
71805;Laerm;59654;52.216;5.616;2024-03-02T02:34:17;38.94;32.47;56.02;;
71805;Laerm;59654;52.216;5.616;2024-03-02T02:34:52;38.52;32.52;53.17;;
71805;Laerm;59654;52.216;5.616;2024-03-02T02:35:23;40.69;33.43;55.86;;
71805;Laerm;59654;52.216;5.616;2024-03-02T02:35:55;40.00;34.22;53.31;;
71805;Laerm;59654;52.216;5.616;2024-03-02T02:36:26;39.77;34.65;53.17;;
71805;Laerm;59654;52.216;5.616;2024-03-02T02:36:57;41.58;35.43;53.89;;
71805;Laerm;59654;52.216;5.616;2024-03-02T02:37:28;40.95;34.34;53.89;;
71805;Laerm;59654;52.216;5.616;2024-03-02T02:38:00;39.29;33.51;53.51;;
71805;Laerm;59654;52.216;5.616;2024-03-02T02:38:36;38.55;33.15;53.16;;
71805;Laerm;59654;52.216;5.616;2024-03-02T02:39:15;39.45;32.88;56.09;;
71805;Laerm;59654;52.216;5.616;2024-03-02T02:39:48;39.51;33.77;53.08;;
71805;Laerm;59654;52.216;5.616;2024-03-02T02:40:20;41.46;34.68;53.32;;
71805;Laerm;59654;52.216;5.616;2024-03-02T02:40:51;41.45;34.01;54.77;;
71805;Laerm;59654;52.216;5.616;2024-03-02T02:41:22;39.54;32.95;52.92;;
71805;Laerm;59654;52.216;5.616;2024-03-02T02:41:53;40.37;32.92;53.06;;
71805;Laerm;59654;52.216;5.616;2024-03-02T02:42:24;40.52;34.98;53.05;;
71805;Laerm;59654;52.216;5.616;2024-03-02T02:42:55;43.64;37.76;53.42;;
71805;Laerm;59654;52.216;5.616;2024-03-02T02:43:26;41.09;33.61;52.97;;
71805;Laerm;59654;52.216;5.616;2024-03-02T02:43:57;38.40;32.76;52.69;;
71805;Laerm;59654;52.216;5.616;2024-03-02T02:44:28;40.21;34.74;54.16;;
71805;Laerm;59654;52.216;5.616;2024-03-02T02:44:59;40.78;34.73;53.08;;
71805;Laerm;59654;52.216;5.616;2024-03-02T02:45:29;41.42;35.04;53.17;;
71805;Laerm;59654;52.216;5.616;2024-03-02T02:46:01;38.63;32.74;52.83;;
71805;Laerm;59654;52.216;5.616;2024-03-02T02:46:32;41.30;33.98;52.98;;
71805;Laerm;59654;52.216;5.616;2024-03-02T02:47:02;40.36;35.06;52.99;;
71805;Laerm;59654;52.216;5.616;2024-03-02T02:47:33;41.75;37.37;55.86;;
71805;Laerm;59654;52.216;5.616;2024-03-02T02:48:06;42.70;38.22;53.37;;
71805;Laerm;59654;52.216;5.616;2024-03-02T02:48:38;44.83;40.74;54.20;;
71805;Laerm;59654;52.216;5.616;2024-03-02T02:49:08;43.41;38.83;54.25;;
71805;Laerm;59654;52.216;5.616;2024-03-02T02:49:39;43.48;39.74;53.43;;
71805;Laerm;59654;52.216;5.616;2024-03-02T02:50:12;43.19;38.50;54.99;;
71805;Laerm;59654;52.216;5.616;2024-03-02T02:50:42;41.53;36.90;55.88;;
71805;Laerm;59654;52.216;5.616;2024-03-02T02:51:13;41.31;35.89;55.80;;
71805;Laerm;59654;52.216;5.616;2024-03-02T02:51:44;41.02;35.98;55.78;;
71805;Laerm;59654;52.216;5.616;2024-03-02T02:52:15;41.29;36.66;53.09;;
71805;Laerm;59654;52.216;5.616;2024-03-02T02:52:46;42.02;36.80;53.01;;
71805;Laerm;59654;52.216;5.616;2024-03-02T02:53:17;42.67;38.84;55.08;;
71805;Laerm;59654;52.216;5.616;2024-03-02T02:53:48;44.28;40.58;53.61;;
71805;Laerm;59654;52.216;5.616;2024-03-02T02:54:18;44.63;41.76;53.69;;
71805;Laerm;59654;52.216;5.616;2024-03-02T02:54:49;43.57;38.76;53.49;;
71805;Laerm;59654;52.216;5.616;2024-03-02T02:55:20;41.09;36.83;53.33;;
71805;Laerm;59654;52.216;5.616;2024-03-02T02:55:51;40.60;34.09;53.68;;
71805;Laerm;59654;52.216;5.616;2024-03-02T02:56:22;39.38;33.79;54.11;;
71805;Laerm;59654;52.216;5.616;2024-03-02T02:56:53;40.08;33.82;54.31;;
71805;Laerm;59654;52.216;5.616;2024-03-02T02:57:24;39.14;33.78;52.79;;
71805;Laerm;59654;52.216;5.616;2024-03-02T02:57:55;40.25;34.10;55.04;;
71805;Laerm;59654;52.216;5.616;2024-03-02T02:58:26;40.10;35.52;55.86;;
71805;Laerm;59654;52.216;5.616;2024-03-02T02:58:58;39.84;34.73;52.87;;
71805;Laerm;59654;52.216;5.616;2024-03-02T02:59:29;38.59;33.78;55.32;;
71805;Laerm;59654;52.216;5.616;2024-03-02T03:00:06;39.26;33.60;54.55;;
71805;Laerm;59654;52.216;5.616;2024-03-02T03:00:40;39.04;33.09;52.89;;
71805;Laerm;59654;52.216;5.616;2024-03-02T03:01:11;40.90;33.77;54.70;;
71805;Laerm;59654;52.216;5.616;2024-03-02T03:01:42;38.88;32.73;53.18;;
71805;Laerm;59654;52.216;5.616;2024-03-02T03:02:14;39.37;33.05;53.06;;
71805;Laerm;59654;52.216;5.616;2024-03-02T03:02:48;40.29;34.06;53.03;;
71805;Laerm;59654;52.216;5.616;2024-03-02T03:03:19;40.32;34.64;53.13;;
71805;Laerm;59654;52.216;5.616;2024-03-02T03:03:50;41.43;34.68;53.31;;